createdAt,value
2022-11-16T06:31:38.638Z,9.90
2022-11-16T06:36:40.447Z,9.90
2022-11-16T06:41:42.338Z,9.80
2022-11-16T06:46:44.175Z,9.80
2022-11-16T06:51:45.996Z,9.80
2022-11-16T06:56:47.936Z,9.80
2022-11-16T07:01:51.738Z,9.70
2022-11-16T07:06:53.612Z,9.60
2022-11-16T07:11:55.531Z,9.60
2022-11-16T07:17:00.417Z,9.60
2022-11-16T07:22:04.332Z,9.60
2022-11-16T07:27:08.375Z,9.50
2022-11-16T07:32:10.323Z,9.50
2022-11-16T07:37:12.153Z,9.50
2022-11-16T07:42:14.100Z,9.50
2022-11-16T07:47:16.155Z,9.50
2022-11-16T07:52:18.003Z,9.50
2022-11-16T07:57:20.147Z,9.40
2022-11-16T08:02:22.056Z,9.50
2022-11-16T08:07:23.971Z,9.50
2022-11-16T08:12:25.873Z,9.40
2022-11-16T08:17:27.775Z,9.50
2022-11-16T08:22:29.698Z,9.40
2022-11-16T08:27:32.557Z,9.40
2022-11-16T08:32:34.366Z,9.40
2022-11-16T08:37:36.204Z,9.40
2022-11-16T08:42:43.335Z,9.40
2022-11-16T08:47:45.688Z,9.40
2022-11-16T08:52:49.768Z,9.50
2022-11-16T08:57:51.828Z,9.50
2022-11-16T09:02:53.662Z,9.50
2022-11-16T09:07:58.201Z,9.50
2022-11-16T09:13:00.162Z,9.50
2022-11-16T09:18:02.026Z,9.50
2022-11-16T09:23:03.913Z,9.50
2022-11-16T09:28:06.142Z,9.50
2022-11-16T09:33:08.034Z,9.60
2022-11-16T09:38:10.073Z,9.60
2022-11-16T09:43:33.339Z,9.60
2022-11-16T09:48:37.347Z,9.70
2022-11-16T09:53:46.457Z,9.70
2022-11-16T09:58:54.134Z,9.70
2022-11-16T10:04:04.667Z,9.80
2022-11-16T10:09:11.266Z,9.80
2022-11-16T10:14:45.311Z,9.90
2022-11-16T10:19:54.328Z,10.00
2022-11-16T10:25:01.342Z,10.00
2022-11-16T10:30:09.680Z,10.10
2022-11-16T10:35:11.537Z,10.10
2022-11-16T10:40:26.540Z,10.20
2022-11-16T10:45:52.190Z,10.30
2022-11-16T10:50:57.377Z,10.40
2022-11-16T10:56:15.956Z,10.50
2022-11-16T11:01:39.755Z,10.60
2022-11-16T11:06:42.088Z,10.60
2022-11-16T11:12:19.579Z,10.70
2022-11-16T11:17:21.451Z,10.80
2022-11-16T11:22:23.555Z,10.80
2022-11-16T11:27:30.989Z,10.90
2022-11-16T11:32:35.291Z,10.90
2022-11-16T11:37:40.190Z,10.90
2022-11-16T11:42:52.414Z,11.00
2022-11-16T11:48:01.745Z,11.00
2022-11-16T11:53:18.888Z,11.00
2022-11-16T11:58:22.003Z,11.10
2022-11-16T12:04:02.596Z,11.10
2022-11-16T12:09:41.055Z,11.20
2022-11-16T12:14:51.914Z,11.20
2022-11-16T12:20:21.187Z,11.30
2022-11-16T12:25:30.198Z,11.30
2022-11-16T12:30:34.615Z,11.40
2022-11-16T12:35:51.769Z,11.30
2022-11-16T12:41:20.260Z,11.40
2022-11-16T12:46:34.241Z,11.40
2022-11-16T12:51:45.436Z,11.40
2022-11-16T12:57:05.632Z,11.50
2022-11-16T13:02:36.794Z,11.50
2022-11-16T13:07:45.073Z,11.60
2022-11-16T13:12:52.665Z,11.60
2022-11-16T13:18:00.171Z,11.70
2022-11-16T13:23:06.407Z,11.80
2022-11-16T13:28:23.473Z,11.80
2022-11-16T13:33:50.233Z,11.80
2022-11-16T13:38:53.543Z,11.90
2022-11-16T13:43:55.712Z,11.90
2022-11-16T13:48:57.550Z,11.90
2022-11-16T13:59:27.514Z,12.00
2022-11-16T14:05:08.465Z,12.00
2022-11-16T14:10:33.112Z,12.00
2022-11-16T14:15:36.624Z,12.00
2022-11-16T14:20:58.120Z,12.00
2022-11-16T14:26:02.849Z,11.90
2022-11-16T14:31:29.750Z,11.90
2022-11-16T14:36:40.459Z,11.90
2022-11-16T14:41:45.799Z,11.90
2022-11-16T14:46:47.839Z,11.90
2022-11-16T14:51:52.088Z,11.90
2022-11-16T14:57:01.705Z,11.90
2022-11-16T15:02:18.119Z,11.90
2022-11-16T15:07:22.872Z,11.90
2022-11-16T15:12:43.148Z,11.90
2022-11-16T15:17:47.163Z,11.80
2022-11-16T15:22:53.014Z,11.80
2022-11-16T15:27:56.636Z,11.80
2022-11-16T15:32:58.682Z,11.80
2022-11-16T15:38:03.938Z,11.80
2022-11-16T15:43:06.725Z,11.70
2022-11-16T15:48:14.192Z,11.70
2022-11-16T15:53:34.471Z,11.60
2022-11-16T15:58:40.102Z,11.60
2022-11-16T16:03:55.278Z,11.60
2022-11-16T16:09:06.623Z,11.50
2022-11-16T16:14:10.830Z,11.50
2022-11-16T16:19:25.274Z,11.40
2022-11-16T16:24:41.312Z,11.30
2022-11-16T16:29:44.447Z,11.30
2022-11-16T16:34:46.322Z,11.20
2022-11-16T16:39:48.382Z,11.20
2022-11-16T16:44:50.615Z,11.00
